Time;durP1;ratioP1;P1;durP2;ratioP2;P2;SDS_P1;SDS_P2;PMS_P1;PMS_P2;Temp;Humidity;BMP_temperature;BMP_pressure;BME280_temperature;BME280_humidity;BME280_pressure;Samples;Min_cycle;Max_cycle;Signal;HPM_P1;HPM_P2
2023/09/16 00:01:39;;;;;;;3.43;2.87;;;;;;;;;;5073478;28;20892;-65
2023/09/16 00:04:06;;;;;;;3.17;2.90;;;;;;;;;;5073794;28;20454;-65
2023/09/16 00:06:33;;;;;;;2.77;2.57;;;;;;;;;;5073682;28;20450;-65
2023/09/16 00:09:01;;;;;;;2.47;2.27;;;;;;;;;;5073566;28;20443;-65
2023/09/16 00:11:29;;;;;;;4.50;1.97;;;;;;;;;;5073490;28;20546;-65
2023/09/16 00:13:56;;;;;;;2.47;2.27;;;;;;;;;;5073285;28;20515;-65
2023/09/16 00:16:23;;;;;;;2.60;2.40;;;;;;;;;;5073648;28;20452;-65
2023/09/16 00:18:50;;;;;;;2.90;2.60;;;;;;;;;;5073518;28;20579;-65
2023/09/16 00:21:17;;;;;;;2.70;2.50;;;;;;;;;;5073448;28;20846;-65
2023/09/16 00:23:44;;;;;;;2.50;2.30;;;;;;;;;;5073316;28;20444;-65
2023/09/16 00:26:15;;;;;;;2.53;2.33;;;;;;;;;;5073168;28;20443;-65
2023/09/16 00:28:42;;;;;;;2.90;2.70;;;;;;;;;;5073516;28;20483;-65
2023/09/16 00:31:11;;;;;;;2.80;2.57;;;;;;;;;;5073341;28;20539;-65
2023/09/16 00:33:38;;;;;;;2.43;2.23;;;;;;;;;;5073215;28;20487;-65
2023/09/16 00:36:05;;;;;;;4.70;2.77;;;;;;;;;;5073149;28;20444;-65
2023/09/16 00:38:32;;;;;;;2.50;2.30;;;;;;;;;;5073105;28;20545;-65
2023/09/16 00:40:59;;;;;;;5.23;2.50;;;;;;;;;;5073010;28;20536;-65
2023/09/16 00:43:27;;;;;;;3.23;2.97;;;;;;;;;;5073001;28;20450;-65
2023/09/16 00:45:54;;;;;;;3.87;2.83;;;;;;;;;;5073100;28;20875;-65
2023/09/16 00:48:21;;;;;;;2.53;2.33;;;;;;;;;;5073086;28;20973;-65
2023/09/16 00:50:49;;;;;;;2.70;2.50;;;;;;;;;;5072989;28;20443;-64
2023/09/16 00:53:16;;;;;;;2.83;2.63;;;;;;;;;;5072761;28;21012;-65
2023/09/16 00:55:44;;;;;;;7.20;2.93;;;;;;;;;;5073082;28;20526;-65
2023/09/16 00:58:11;;;;;;;2.63;2.40;;;;;;;;;;5073097;28;20439;-65
2023/09/16 01:00:39;;;;;;;3.60;2.70;;;;;;;;;;5072736;28;20898;-65
2023/09/16 01:03:07;;;;;;;3.10;2.53;;;;;;;;;;5072929;28;20803;-65
2023/09/16 01:05:35;;;;;;;3.30;2.60;;;;;;;;;;5072756;28;21075;-65
2023/09/16 01:08:03;;;;;;;3.03;2.77;;;;;;;;;;5072817;28;20494;-65
2023/09/16 01:10:30;;;;;;;3.00;2.53;;;;;;;;;;5073041;28;20447;-65
2023/09/16 01:12:58;;;;;;;3.33;3.00;;;;;;;;;;5072871;28;20558;-65
2023/09/16 01:15:27;;;;;;;3.20;2.93;;;;;;;;;;5072885;28;20440;-65
2023/09/16 01:18:01;;;;;;;4.50;2.70;;;;;;;;;;5072736;28;20479;-65
2023/09/16 01:20:28;;;;;;;3.00;2.80;;;;;;;;;;5072632;28;20961;-65
2023/09/16 01:22:55;;;;;;;3.37;3.10;;;;;;;;;;5072770;28;20613;-65
2023/09/16 01:25:26;;;;;;;5.97;3.13;;;;;;;;;;5072937;28;20439;-65
2023/09/16 01:27:53;;;;;;;3.33;3.03;;;;;;;;;;5076855;28;20439;-65
2023/09/16 01:30:20;;;;;;;2.70;2.50;;;;;;;;;;5076644;28;20531;-65
2023/09/16 01:32:53;;;;;;;3.60;3.30;;;;;;;;;;5076446;28;20534;-65
2023/09/16 01:35:21;;;;;;;3.97;2.77;;;;;;;;;;5076707;28;20534;-65
2023/09/16 01:37:48;;;;;;;4.13;2.50;;;;;;;;;;5076607;28;20443;-64
2023/09/16 01:40:16;;;;;;;4.17;2.80;;;;;;;;;;5076441;28;20443;-65
2023/09/16 01:42:44;;;;;;;2.80;2.60;;;;;;;;;;5076426;28;20538;-65
2023/09/16 01:45:11;;;;;;;5.13;3.63;;;;;;;;;;5076303;28;20443;-64
2023/09/16 01:47:38;;;;;;;4.83;2.63;;;;;;;;;;5076159;28;20481;-65
2023/09/16 01:50:06;;;;;;;3.00;2.70;;;;;;;;;;5076315;28;20443;-65
2023/09/16 01:52:33;;;;;;;5.33;2.57;;;;;;;;;;5076281;28;20554;-64
2023/09/16 01:55:00;;;;;;;3.90;3.17;;;;;;;;;;5076075;28;20478;-65
2023/09/16 01:57:27;;;;;;;2.77;2.53;;;;;;;;;;5076085;28;20443;-65
2023/09/16 01:59:55;;;;;;;3.67;3.27;;;;;;;;;;5075707;28;20471;-65
2023/09/16 02:02:22;;;;;;;2.73;2.53;;;;;;;;;;5076149;28;20542;-65
2023/09/16 02:04:49;;;;;;;2.70;2.50;;;;;;;;;;5076062;28;20518;-65
2023/09/16 02:07:16;;;;;;;6.07;3.00;;;;;;;;;;5075988;28;20446;-65
2023/09/16 02:09:43;;;;;;;3.10;2.27;;;;;;;;;;5075867;28;21018;-65
2023/09/16 02:12:10;;;;;;;3.17;2.63;;;;;;;;;;5075786;28;20450;-65
2023/09/16 02:14:39;;;;;;;4.17;3.10;;;;;;;;;;5075536;28;20924;-65
2023/09/16 02:17:09;;;;;;;4.83;3.20;;;;;;;;;;5075856;28;20444;-65
2023/09/16 02:19:36;;;;;;;3.10;2.70;;;;;;;;;;5075845;28;20459;-65
2023/09/16 02:22:03;;;;;;;3.20;2.90;;;;;;;;;;5075567;28;20931;-65
2023/09/16 02:24:32;;;;;;;2.70;2.50;;;;;;;;;;5075594;28;20451;-65
2023/09/16 02:26:59;;;;;;;3.77;2.60;;;;;;;;;;5075516;28;20849;-65
2023/09/16 02:29:26;;;;;;;2.63;2.43;;;;;;;;;;5075370;28;20443;-65
2023/09/16 02:31:53;;;;;;;4.73;2.30;;;;;;;;;;5075567;28;20475;-65
2023/09/16 02:34:21;;;;;;;3.40;2.97;;;;;;;;;;5075399;28;20479;-65
2023/09/16 02:36:48;;;;;;;3.00;2.73;;;;;;;;;;5074865;28;20443;-65
2023/09/16 02:39:15;;;;;;;4.60;2.70;;;;;;;;;;5074696;28;20527;-65
2023/09/16 02:41:42;;;;;;;3.37;2.60;;;;;;;;;;5075197;28;20814;-65
2023/09/16 02:44:09;;;;;;;4.00;2.87;;;;;;;;;;5075394;28;20490;-65
2023/09/16 02:46:36;;;;;;;3.07;2.63;;;;;;;;;;5075367;28;20510;-65
2023/09/16 02:49:03;;;;;;;2.47;2.27;;;;;;;;;;5075206;28;20530;-65
2023/09/16 02:51:32;;;;;;;3.40;3.10;;;;;;;;;;5075090;28;20444;-65
2023/09/16 02:54:01;;;;;;;3.73;2.40;;;;;;;;;;5074920;28;20486;-65
2023/09/16 02:56:28;;;;;;;3.20;2.90;;;;;;;;;;5074887;28;20577;-65
2023/09/16 02:58:55;;;;;;;3.90;2.80;;;;;;;;;;5075146;28;20894;-65
2023/09/16 03:01:22;;;;;;;2.90;2.60;;;;;;;;;;5074783;28;20467;-65
2023/09/16 03:03:49;;;;;;;5.90;2.70;;;;;;;;;;5074960;28;20440;-65
2023/09/16 03:06:16;;;;;;;3.13;2.90;;;;;;;;;;5074805;28;20792;-65
2023/09/16 03:08:44;;;;;;;3.33;2.47;;;;;;;;;;5074727;28;20867;-65
2023/09/16 03:11:13;;;;;;;4.13;3.20;;;;;;;;;;5075025;28;20475;-65
2023/09/16 03:13:40;;;;;;;5.90;3.20;;;;;;;;;;5074674;28;20475;-65
2023/09/16 03:16:14;;;;;;;2.80;2.60;;;;;;;;;;5074660;28;20534;-65
2023/09/16 03:18:43;;;;;;;5.00;2.77;;;;;;;;;;5074643;28;20478;-65
2023/09/16 03:21:10;;;;;;;3.63;2.90;;;;;;;;;;5074484;28;20534;-65
2023/09/16 03:23:37;;;;;;;2.70;2.50;;;;;;;;;;5074625;28;20868;-65
2023/09/16 03:26:05;;;;;;;4.30;2.60;;;;;;;;;;5074510;28;20532;-65
2023/09/16 03:28:32;;;;;;;2.93;2.73;;;;;;;;;;5074687;28;20440;-65
2023/09/16 03:30:59;;;;;;;4.57;3.00;;;;;;;;;;5074366;28;20534;-65
2023/09/16 03:33:26;;;;;;;2.43;2.23;;;;;;;;;;5074204;28;20475;-65
2023/09/16 03:35:53;;;;;;;3.07;2.80;;;;;;;;;;5074124;28;20477;-65
2023/09/16 03:38:20;;;;;;;3.90;2.60;;;;;;;;;;5074297;28;20447;-65
2023/09/16 03:40:47;;;;;;;3.53;2.83;;;;;;;;;;5074248;28;20871;-65
2023/09/16 03:43:15;;;;;;;2.40;2.20;;;;;;;;;;5074128;28;20534;-65
2023/09/16 03:45:42;;;;;;;3.00;2.80;;;;;;;;;;5074026;28;20451;-65
2023/09/16 03:48:09;;;;;;;2.93;2.30;;;;;;;;;;5073753;28;20443;-65
2023/09/16 03:50:36;;;;;;;4.23;2.83;;;;;;;;;;5073802;28;20443;-65
2023/09/16 03:53:03;;;;;;;3.30;2.80;;;;;;;;;;5073787;28;21034;-65
2023/09/16 03:55:30;;;;;;;6.03;3.03;;;;;;;;;;5073798;28;20570;-65
2023/09/16 03:57:57;;;;;;;2.37;2.17;;;;;;;;;;5073889;28;20448;-65
2023/09/16 04:00:25;;;;;;;7.27;3.47;;;;;;;;;;5073572;28;20471;-65
2023/09/16 04:02:52;;;;;;;3.30;2.70;;;;;;;;;;5073536;28;20443;-65
2023/09/16 04:05:19;;;;;;;3.63;3.27;;;;;;;;;;5073826;28;20508;-65
2023/09/16 04:07:47;;;;;;;2.87;2.57;;;;;;;;;;5073771;28;20926;-65
2023/09/16 04:10:14;;;;;;;5.53;2.97;;;;;;;;;;5073688;28;20449;-65
2023/09/16 04:12:41;;;;;;;5.30;3.60;;;;;;;;;;5073586;28;20529;-64
2023/09/16 04:15:08;;;;;;;3.80;3.00;;;;;;;;;;5073325;28;21001;-65
2023/09/16 04:17:36;;;;;;;5.20;3.23;;;;;;;;;;5073375;28;20450;-65
2023/09/16 04:20:05;;;;;;;3.53;2.73;;;;;;;;;;5073594;28;20450;-65
2023/09/16 04:22:32;;;;;;;3.10;2.53;;;;;;;;;;5073437;28;20489;-65
2023/09/16 04:24:59;;;;;;;3.10;2.90;;;;;;;;;;5073379;28;20451;-65
2023/09/16 04:27:26;;;;;;;3.17;2.87;;;;;;;;;;5073330;28;20523;-65
2023/09/16 04:29:53;;;;;;;4.13;3.73;;;;;;;;;;5073208;28;20878;-65
2023/09/16 04:32:20;;;;;;;3.17;2.63;;;;;;;;;;5073461;28;20447;-65
2023/09/16 04:34:49;;;;;;;6.17;3.07;;;;;;;;;;5073264;28;20483;-65
2023/09/16 04:37:16;;;;;;;5.40;3.03;;;;;;;;;;5073269;28;20923;-65
2023/09/16 04:39:43;;;;;;;4.83;3.00;;;;;;;;;;5073219;28;20456;-65
2023/09/16 04:42:10;;;;;;;4.83;3.30;;;;;;;;;;5073044;28;20539;-65
2023/09/16 04:44:39;;;;;;;3.10;2.90;;;;;;;;;;5072954;28;20807;-65
2023/09/16 04:47:07;;;;;;;3.20;2.90;;;;;;;;;;5073221;28;20461;-65
2023/09/16 04:49:34;;;;;;;2.80;2.60;;;;;;;;;;5073152;28;20444;-64
2023/09/16 04:52:04;;;;;;;3.47;2.70;;;;;;;;;;5073072;28;20458;-65
2023/09/16 04:54:32;;;;;;;3.90;2.80;;;;;;;;;;5072984;28;20516;-65
2023/09/16 04:57:00;;;;;;;3.80;3.10;;;;;;;;;;5072847;28;20930;-65
2023/09/16 04:59:27;;;;;;;3.00;2.70;;;;;;;;;;5072597;28;20930;-65
2023/09/16 05:01:54;;;;;;;3.70;2.80;;;;;;;;;;5072381;28;20806;-64
2023/09/16 05:04:21;;;;;;;9.20;3.07;;;;;;;;;;5072934;28;20451;-64
2023/09/16 05:06:48;;;;;;;3.80;2.90;;;;;;;;;;5072900;28;20445;-65
2023/09/16 05:09:16;;;;;;;5.70;3.30;;;;;;;;;;5072816;28;20530;-65
2023/09/16 05:11:44;;;;;;;3.13;2.90;;;;;;;;;;5072725;28;20530;-65
2023/09/16 05:14:11;;;;;;;5.20;3.40;;;;;;;;;;5072899;28;20475;-65
2023/09/16 05:16:38;;;;;;;3.40;2.63;;;;;;;;;;5072914;28;20538;-65
2023/09/16 05:19:05;;;;;;;3.70;2.63;;;;;;;;;;5072877;28;20946;-65
2023/09/16 05:21:32;;;;;;;5.03;3.33;;;;;;;;;;5072754;28;20444;-65
2023/09/16 05:23:59;;;;;;;3.83;2.70;;;;;;;;;;5072674;28;20443;-65
2023/09/16 05:26:27;;;;;;;3.70;3.20;;;;;;;;;;5072632;28;20522;-65
2023/09/16 05:28:56;;;;;;;4.90;3.30;;;;;;;;;;5072801;28;20851;-65
2023/09/16 05:31:24;;;;;;;3.17;2.87;;;;;;;;;;5072822;28;20519;-65
2023/09/16 05:33:51;;;;;;;3.03;2.83;;;;;;;;;;5072553;28;20447;-65
2023/09/16 05:36:18;;;;;;;3.87;2.90;;;;;;;;;;5072597;28;20527;-65
2023/09/16 05:38:44;;;;;;;4.90;3.17;;;;;;;;;;5072432;28;20538;-65
2023/09/16 05:41:11;;;;;;;3.30;3.00;;;;;;;;;;5072708;28;20454;-65
2023/09/16 05:43:40;;;;;;;5.83;3.37;;;;;;;;;;5072639;28;20875;-65
2023/09/16 05:46:07;;;;;;;4.20;3.63;;;;;;;;;;5072452;28;20538;-65
2023/09/16 05:48:34;;;;;;;4.03;3.10;;;;;;;;;;5072471;28;20530;-65
2023/09/16 05:51:02;;;;;;;3.30;2.97;;;;;;;;;;5072413;28;20493;-65
2023/09/16 05:53:29;;;;;;;4.70;3.20;;;;;;;;;;5072308;28;20446;-65
2023/09/16 05:55:56;;;;;;;4.90;3.37;;;;;;;;;;5072229;28;21039;-64
2023/09/16 05:58:23;;;;;;;5.60;3.10;;;;;;;;;;5072481;28;20443;-65
2023/09/16 06:00:55;;;;;;;5.00;3.80;;;;;;;;;;5072186;28;20554;-65
2023/09/16 06:03:22;;;;;;;8.90;3.80;;;;;;;;;;5072370;28;20452;-65
2023/09/16 06:05:49;;;;;;;5.57;3.50;;;;;;;;;;5072126;28;20447;-65
2023/09/16 06:08:16;;;;;;;4.00;3.40;;;;;;;;;;5072484;28;20447;-65
2023/09/16 06:10:43;;;;;;;6.63;3.80;;;;;;;;;;5072324;28;20478;-65
2023/09/16 06:13:10;;;;;;;4.43;3.23;;;;;;;;;;5075068;28;20538;-65
2023/09/16 06:15:37;;;;;;;4.53;3.20;;;;;;;;;;5075497;28;21035;-64
2023/09/16 06:18:06;;;;;;;5.53;3.80;;;;;;;;;;5075702;28;20538;-65
2023/09/16 06:20:33;;;;;;;3.83;3.07;;;;;;;;;;5075469;28;20552;-65
2023/09/16 06:23:03;;;;;;;4.30;3.20;;;;;;;;;;5075809;28;20440;-65
2023/09/16 06:25:30;;;;;;;2.93;2.67;;;;;;;;;;5075760;28;20444;-65
2023/09/16 06:27:59;;;;;;;5.60;3.23;;;;;;;;;;5075644;28;20492;-65
2023/09/16 06:30:26;;;;;;;6.23;4.00;;;;;;;;;;5075626;28;20859;-65
2023/09/16 06:32:53;;;;;;;4.13;3.73;;;;;;;;;;5075319;28;20526;-65
2023/09/16 06:35:22;;;;;;;4.57;3.23;;;;;;;;;;5075569;28;20479;-65
2023/09/16 06:37:49;;;;;;;4.37;3.67;;;;;;;;;;5075418;28;20751;-65
2023/09/16 06:40:17;;;;;;;3.50;3.20;;;;;;;;;;5075367;28;20462;-65
2023/09/16 06:42:44;;;;;;;4.27;3.70;;;;;;;;;;5075336;28;20446;-65
2023/09/16 06:45:11;;;;;;;4.87;3.37;;;;;;;;;;5075159;28;20443;-65
2023/09/16 06:47:38;;;;;;;4.37;2.87;;;;;;;;;;5075071;28;20439;-65
2023/09/16 06:50:06;;;;;;;4.27;3.07;;;;;;;;;;5075329;28;20538;-65
2023/09/16 06:52:34;;;;;;;3.90;3.07;;;;;;;;;;5075234;28;20526;-65
2023/09/16 06:55:01;;;;;;;3.63;3.33;;;;;;;;;;5075065;28;20471;-65
2023/09/16 06:57:28;;;;;;;4.70;3.63;;;;;;;;;;5074959;28;20535;-65
2023/09/16 06:59:55;;;;;;;3.60;3.20;;;;;;;;;;5074695;28;20533;-65
2023/09/16 07:02:22;;;;;;;4.53;2.73;;;;;;;;;;5075129;28;20958;-65
2023/09/16 07:04:49;;;;;;;4.13;3.30;;;;;;;;;;5074966;28;20459;-65
2023/09/16 07:07:16;;;;;;;3.70;3.37;;;;;;;;;;5074932;28;20795;-65
2023/09/16 07:09:44;;;;;;;3.67;3.13;;;;;;;;;;5074728;28;20533;-65
2023/09/16 07:12:11;;;;;;;6.07;3.90;;;;;;;;;;5074622;28;20546;-65
2023/09/16 07:14:39;;;;;;;6.00;3.37;;;;;;;;;;5074416;28;20490;-65
2023/09/16 07:17:06;;;;;;;4.40;3.20;;;;;;;;;;5074772;28;20475;-65
2023/09/16 07:19:33;;;;;;;4.17;3.50;;;;;;;;;;5074491;28;21006;-65
2023/09/16 07:22:00;;;;;;;3.87;3.50;;;;;;;;;;5074639;28;20455;-65
2023/09/16 07:24:27;;;;;;;4.20;3.77;;;;;;;;;;5073813;28;20517;-65
2023/09/16 07:26:56;;;;;;;4.67;3.40;;;;;;;;;;5074322;28;20444;-65
2023/09/16 07:29:23;;;;;;;3.20;2.90;;;;;;;;;;5074185;28;20490;-65
2023/09/16 07:31:50;;;;;;;5.23;3.50;;;;;;;;;;5074090;28;20558;-65
2023/09/16 07:34:19;;;;;;;5.20;3.60;;;;;;;;;;5074344;28;20980;-65
2023/09/16 07:36:47;;;;;;;3.87;3.57;;;;;;;;;;5074177;28;20435;-65
2023/09/16 07:39:14;;;;;;;4.27;3.27;;;;;;;;;;5074163;28;20538;-65
2023/09/16 07:41:41;;;;;;;4.47;3.50;;;;;;;;;;5073929;28;20515;-65
2023/09/16 07:44:09;;;;;;;5.57;3.60;;;;;;;;;;5074060;28;20452;-65
2023/09/16 07:46:36;;;;;;;6.40;3.53;;;;;;;;;;5074162;28;20562;-65
2023/09/16 07:49:03;;;;;;;3.67;3.30;;;;;;;;;;5073887;28;20934;-65
2023/09/16 07:51:30;;;;;;;3.60;3.30;;;;;;;;;;5073905;28;20530;-65
2023/09/16 07:53:57;;;;;;;6.50;3.77;;;;;;;;;;5073821;28;20447;-65
2023/09/16 07:56:24;;;;;;;5.13;3.63;;;;;;;;;;5073626;28;20483;-65
2023/09/16 07:58:51;;;;;;;4.90;3.83;;;;;;;;;;5073889;28;20509;-65
2023/09/16 08:01:19;;;;;;;3.37;2.93;;;;;;;;;;5073453;28;20838;-65
2023/09/16 08:03:46;;;;;;;3.60;3.30;;;;;;;;;;5073708;28;20539;-65
2023/09/16 08:06:13;;;;;;;4.77;3.60;;;;;;;;;;5073606;28;20470;-65
2023/09/16 08:08:40;;;;;;;3.50;3.23;;;;;;;;;;5073411;28;20522;-65
2023/09/16 08:11:07;;;;;;;5.63;3.67;;;;;;;;;;5073635;28;20539;-65
2023/09/16 08:13:34;;;;;;;6.77;3.97;;;;;;;;;;5073617;28;20872;-65
2023/09/16 08:16:01;;;;;;;3.90;3.23;;;;;;;;;;5073485;28;20483;-65
2023/09/16 08:18:29;;;;;;;4.10;3.70;;;;;;;;;;5073427;28;20818;-65
2023/09/16 08:20:56;;;;;;;4.03;3.70;;;;;;;;;;5073363;28;20538;-65
2023/09/16 08:23:23;;;;;;;3.53;3.23;;;;;;;;;;5073249;28;20479;-65
2023/09/16 08:25:50;;;;;;;6.00;3.60;;;;;;;;;;5073381;28;20447;-65
2023/09/16 08:28:17;;;;;;;3.67;3.30;;;;;;;;;;5073353;28;20448;-65
2023/09/16 08:30:44;;;;;;;7.67;3.90;;;;;;;;;;5073216;28;20454;-65
2023/09/16 08:33:11;;;;;;;3.63;3.33;;;;;;;;;;5073262;28;20450;-65
2023/09/16 08:35:39;;;;;;;3.97;3.50;;;;;;;;;;5072221;28;20600;-65
2023/09/16 08:38:07;;;;;;;5.80;4.10;;;;;;;;;;5073152;28;20444;-65
2023/09/16 08:40:34;;;;;;;5.37;3.60;;;;;;;;;;5073070;28;21005;-65
2023/09/16 08:43:10;;;;;;;3.87;3.13;;;;;;;;;;5073050;28;20444;-65
2023/09/16 08:45:40;;;;;;;4.37;3.97;;;;;;;;;;5073086;28;20455;-65
2023/09/16 08:48:07;;;;;;;5.70;3.40;;;;;;;;;;5072955;28;20610;-66
2023/09/16 08:50:34;;;;;;;5.00;3.90;;;;;;;;;;5072878;28;20436;-65
2023/09/16 08:53:04;;;;;;;3.90;3.53;;;;;;;;;;5073077;28;20866;-65
2023/09/16 08:55:34;;;;;;;4.23;3.83;;;;;;;;;;5072836;28;20510;-65
2023/09/16 08:58:03;;;;;;;3.90;3.63;;;;;;;;;;5072932;28;20448;-65
2023/09/16 09:00:30;;;;;;;3.70;3.40;;;;;;;;;;5072731;28;20562;-65
2023/09/16 09:02:57;;;;;;;6.83;3.30;;;;;;;;;;5072715;28;20542;-65
2023/09/16 09:05:25;;;;;;;3.50;3.20;;;;;;;;;;5073013;28;20538;-65
2023/09/16 09:07:52;;;;;;;4.40;3.50;;;;;;;;;;5072874;28;20913;-65
2023/09/16 09:10:20;;;;;;;4.90;3.53;;;;;;;;;;5072707;28;20937;-65
2023/09/16 09:12:47;;;;;;;5.03;4.37;;;;;;;;;;5072805;28;20538;-65
2023/09/16 09:15:15;;;;;;;3.70;3.40;;;;;;;;;;5072610;28;20471;-66
2023/09/16 09:17:44;;;;;;;5.70;5.20;;;;;;;;;;5072761;28;20462;-65
2023/09/16 09:20:14;;;;;;;4.37;3.97;;;;;;;;;;5072857;28;20447;-65
2023/09/16 09:22:41;;;;;;;3.63;3.33;;;;;;;;;;5072711;28;20534;-65
2023/09/16 09:25:09;;;;;;;4.07;3.67;;;;;;;;;;5072453;28;20534;-65
2023/09/16 09:27:37;;;;;;;3.57;3.27;;;;;;;;;;5073007;28;20542;-65
2023/09/16 09:30:04;;;;;;;4.43;3.73;;;;;;;;;;5072583;28;20512;-65
2023/09/16 09:32:32;;;;;;;3.77;3.37;;;;;;;;;;5072662;28;20455;-65
2023/09/16 09:34:59;;;;;;;5.73;3.60;;;;;;;;;;5072517;28;20443;-65
2023/09/16 09:37:25;;;;;;;4.20;3.80;;;;;;;;;;5072427;28;20531;-65
2023/09/16 09:40:05;;;;;;;3.80;3.50;;;;;;;;;;5072485;28;20483;-65
2023/09/16 09:42:32;;;;;;;3.73;3.40;;;;;;;;;;5072283;28;20962;-65
2023/09/16 09:45:03;;;;;;;4.67;4.30;;;;;;;;;;5072320;28;20926;-65
2023/09/16 09:47:30;;;;;;;4.00;3.70;;;;;;;;;;5074451;28;20447;-65
2023/09/16 09:49:57;;;;;;;3.60;3.23;;;;;;;;;;5076056;28;20443;-65
2023/09/16 09:52:24;;;;;;;4.77;3.50;;;;;;;;;;5076148;28;20798;-65
2023/09/16 09:54:52;;;;;;;4.77;4.37;;;;;;;;;;5075894;28;20534;-65
2023/09/16 09:57:19;;;;;;;4.10;3.70;;;;;;;;;;5075917;28;20490;-65
2023/09/16 09:59:46;;;;;;;5.43;3.70;;;;;;;;;;5075701;28;20974;-65
2023/09/16 10:02:15;;;;;;;3.23;2.93;;;;;;;;;;5076011;28;20458;-65
2023/09/16 10:04:42;;;;;;;6.83;3.70;;;;;;;;;;5075620;28;21015;-65
2023/09/16 10:07:09;;;;;;;4.63;3.60;;;;;;;;;;5075708;28;20444;-65
2023/09/16 10:09:36;;;;;;;4.17;3.73;;;;;;;;;;5075682;28;20471;-65
2023/09/16 10:12:03;;;;;;;3.70;3.20;;;;;;;;;;5075907;28;20550;-65
2023/09/16 10:14:32;;;;;;;3.47;3.17;;;;;;;;;;5075742;28;20870;-65
2023/09/16 10:16:59;;;;;;;4.90;3.70;;;;;;;;;;5075400;28;20490;-65
2023/09/16 10:19:28;;;;;;;3.70;3.30;;;;;;;;;;5075614;28;20482;-65
2023/09/16 10:21:55;;;;;;;4.50;3.30;;;;;;;;;;5075564;28;20443;-65
2023/09/16 10:24:22;;;;;;;4.00;3.60;;;;;;;;;;5075297;28;20526;-65
2023/09/16 10:26:49;;;;;;;3.20;3.00;;;;;;;;;;5075302;28;20439;-65
2023/09/16 10:29:17;;;;;;;4.80;3.57;;;;;;;;;;5075281;28;20534;-65
2023/09/16 10:31:44;;;;;;;5.17;4.07;;;;;;;;;;5075392;28;20483;-66
2023/09/16 10:34:12;;;;;;;4.37;3.67;;;;;;;;;;5075191;28;20443;-65
2023/09/16 10:36:41;;;;;;;3.60;3.30;;;;;;;;;;5075064;28;20479;-65
2023/09/16 10:39:08;;;;;;;3.77;3.47;;;;;;;;;;5075120;28;20444;-66
2023/09/16 10:41:35;;;;;;;5.27;3.20;;;;;;;;;;5075292;28;20534;-65
2023/09/16 10:44:03;;;;;;;5.67;3.60;;;;;;;;;;5075302;28;20447;-65
2023/09/16 10:46:31;;;;;;;3.90;3.37;;;;;;;;;;5075172;28;20540;-65
2023/09/16 10:48:57;;;;;;;3.57;3.27;;;;;;;;;;5074972;28;20557;-65
2023/09/16 10:51:25;;;;;;;6.30;3.33;;;;;;;;;;5074868;28;20448;-65
2023/09/16 10:53:57;;;;;;;3.43;3.13;;;;;;;;;;5075115;28;20626;-65
2023/09/16 10:56:28;;;;;;;8.30;3.80;;;;;;;;;;5074921;28;20479;-65
2023/09/16 10:58:57;;;;;;;3.33;3.13;;;;;;;;;;5073678;28;20458;-66
2023/09/16 11:01:26;;;;;;;3.27;2.97;;;;;;;;;;5074668;28;21050;-66
2023/09/16 11:03:54;;;;;;;3.40;3.20;;;;;;;;;;5074671;28;20450;-66
2023/09/16 11:06:21;;;;;;;3.57;3.27;;;;;;;;;;5074716;28;20443;-66
2023/09/16 11:08:48;;;;;;;3.23;2.93;;;;;;;;;;5074788;28;20448;-66
2023/09/16 11:11:18;;;;;;;3.70;3.40;;;;;;;;;;5074548;28;20443;-65
2023/09/16 11:13:45;;;;;;;3.67;3.37;;;;;;;;;;5074652;28;20443;-66
2023/09/16 11:16:12;;;;;;;4.57;4.27;;;;;;;;;;5074504;28;20835;-66
2023/09/16 11:18:42;;;;;;;4.23;3.83;;;;;;;;;;5074643;28;20450;-66
2023/09/16 11:21:09;;;;;;;2.90;2.70;;;;;;;;;;5074684;28;20444;-66
2023/09/16 11:23:37;;;;;;;3.30;3.03;;;;;;;;;;5074416;28;20542;-66
2023/09/16 11:26:04;;;;;;;3.90;3.60;;;;;;;;;;5074413;28;20452;-66
2023/09/16 11:28:32;;;;;;;3.60;3.30;;;;;;;;;;5074221;28;20463;-66
2023/09/16 11:31:01;;;;;;;3.30;3.10;;;;;;;;;;5074254;28;20475;-66
2023/09/16 11:33:32;;;;;;;3.93;3.73;;;;;;;;;;5074341;28;20482;-66
2023/09/16 11:36:15;;;;;;;3.97;3.30;;;;;;;;;;5074261;28;20554;-66
2023/09/16 11:38:57;;;;;;;5.70;3.13;;;;;;;;;;5074024;28;20444;-66
2023/09/16 11:41:24;;;;;;;3.43;3.23;;;;;;;;;;5074045;28;20981;-66
2023/09/16 11:43:53;;;;;;;3.93;3.50;;;;;;;;;;5073995;28;20476;-66
2023/09/16 11:46:20;;;;;;;3.60;3.30;;;;;;;;;;5074054;28;20866;-66
2023/09/16 11:48:50;;;;;;;3.57;3.10;;;;;;;;;;5073859;28;20534;-66
2023/09/16 11:51:18;;;;;;;3.83;3.53;;;;;;;;;;5073808;28;20534;-66
2023/09/16 11:53:45;;;;;;;6.60;3.20;;;;;;;;;;5073747;28;20447;-66
2023/09/16 11:56:12;;;;;;;2.80;2.60;;;;;;;;;;5073826;28;20485;-66
2023/09/16 11:58:39;;;;;;;4.07;3.67;;;;;;;;;;5073888;28;20802;-66
2023/09/16 12:01:08;;;;;;;3.10;2.90;;;;;;;;;;5073458;28;20578;-66
2023/09/16 12:03:35;;;;;;;3.70;3.40;;;;;;;;;;5073691;28;20455;-66
2023/09/16 12:06:02;;;;;;;4.60;3.70;;;;;;;;;;5073573;28;20489;-66
2023/09/16 12:08:30;;;;;;;4.70;3.60;;;;;;;;;;5073477;28;20444;-66
2023/09/16 12:10:57;;;;;;;3.90;3.50;;;;;;;;;;5073479;28;20534;-66
2023/09/16 12:13:28;;;;;;;3.40;3.20;;;;;;;;;;5073521;28;20469;-66
2023/09/16 12:15:55;;;;;;;3.10;2.90;;;;;;;;;;5073330;28;20535;-66
2023/09/16 12:18:23;;;;;;;3.80;3.50;;;;;;;;;;5073179;28;20447;-66
2023/09/16 12:20:50;;;;;;;3.23;2.93;;;;;;;;;;5073490;28;20451;-66
2023/09/16 12:23:17;;;;;;;4.00;3.70;;;;;;;;;;5073256;28;20450;-66
2023/09/16 12:25:45;;;;;;;3.67;3.37;;;;;;;;;;5073304;28;20469;-66
2023/09/16 12:28:12;;;;;;;4.10;3.50;;;;;;;;;;5073280;28;20448;-66
2023/09/16 12:30:43;;;;;;;2.87;2.67;;;;;;;;;;5073105;28;20903;-66
2023/09/16 12:33:10;;;;;;;3.30;3.07;;;;;;;;;;5073059;28;20815;-66
2023/09/16 12:35:39;;;;;;;3.40;3.10;;;;;;;;;;5072925;28;20445;-66
2023/09/16 12:38:06;;;;;;;3.37;3.17;;;;;;;;;;5073049;28;20482;-66
2023/09/16 12:40:34;;;;;;;3.67;3.40;;;;;;;;;;5073151;28;20456;-66
2023/09/16 12:43:01;;;;;;;4.03;3.27;;;;;;;;;;5072735;28;20539;-66
2023/09/16 12:45:29;;;;;;;3.00;2.77;;;;;;;;;;5073464;28;20448;-66
2023/09/16 12:47:56;;;;;;;3.43;3.23;;;;;;;;;;5072554;28;20476;-66
2023/09/16 12:50:23;;;;;;;4.30;3.97;;;;;;;;;;5073075;28;20976;-66
2023/09/16 12:52:51;;;;;;;3.50;3.20;;;;;;;;;;5072958;28;20887;-66
2023/09/16 12:55:18;;;;;;;3.53;3.30;;;;;;;;;;5072833;28;20534;-66
2023/09/16 12:57:47;;;;;;;3.53;3.33;;;;;;;;;;5072852;28;20482;-65
2023/09/16 13:00:19;;;;;;;3.20;3.00;;;;;;;;;;5072416;28;20563;-64
2023/09/16 13:02:47;;;;;;;3.37;3.23;;;;;;;;;;5072964;28;20479;-67
2023/09/16 13:05:16;;;;;;;3.50;3.30;;;;;;;;;;5073048;28;20530;-66
2023/09/16 13:07:44;;;;;;;3.47;3.17;;;;;;;;;;5072632;28;20458;-66
2023/09/16 13:10:13;;;;;;;3.47;3.27;;;;;;;;;;5072659;28;20447;-67
2023/09/16 13:12:42;;;;;;;3.40;3.17;;;;;;;;;;5072489;28;20956;-67
2023/09/16 13:15:13;;;;;;;3.40;3.00;;;;;;;;;;5072547;28;20806;-67
2023/09/16 13:17:40;;;;;;;3.37;3.07;;;;;;;;;;5072771;28;20483;-67
2023/09/16 13:20:12;;;;;;;3.30;3.10;;;;;;;;;;5072676;28;20508;-67
2023/09/16 13:22:39;;;;;;;3.10;2.93;;;;;;;;;;5074986;28;20449;-67
2023/09/16 13:25:21;;;;;;;3.00;2.50;;;;;;;;;;5076679;28;20439;-66
2023/09/16 13:27:49;;;;;;;4.50;2.83;;;;;;;;;;5076246;28;20912;-67
2023/09/16 13:30:20;;;;;;;3.47;3.13;;;;;;;;;;5076480;28;20451;-67
2023/09/16 13:32:51;;;;;;;3.20;2.80;;;;;;;;;;5076515;28;20454;-67
2023/09/16 13:35:18;;;;;;;3.10;2.90;;;;;;;;;;5076609;28;20443;-66
2023/09/16 13:37:45;;;;;;;3.67;3.37;;;;;;;;;;5076204;28;20886;-67
2023/09/16 13:40:14;;;;;;;5.00;3.27;;;;;;;;;;5076294;28;20534;-67
2023/09/16 13:42:41;;;;;;;3.37;3.10;;;;;;;;;;5076490;28;20493;-67
2023/09/16 13:45:10;;;;;;;3.33;3.03;;;;;;;;;;5075966;28;20453;-67
2023/09/16 13:47:37;;;;;;;3.50;3.30;;;;;;;;;;5076240;28;20450;-67
2023/09/16 13:50:04;;;;;;;3.20;3.00;;;;;;;;;;5076136;28;20550;-67
2023/09/16 13:52:31;;;;;;;3.27;3.03;;;;;;;;;;5075919;28;20471;-67
2023/09/16 13:54:58;;;;;;;7.20;3.27;;;;;;;;;;5076139;28;20445;-67
2023/09/16 13:57:25;;;;;;;4.13;3.60;;;;;;;;;;5076043;28;20482;-67
2023/09/16 13:59:52;;;;;;;3.20;3.00;;;;;;;;;;5075779;28;20475;-67
2023/09/16 14:02:21;;;;;;;3.33;2.90;;;;;;;;;;5075809;28;20930;-67
2023/09/16 14:04:49;;;;;;;3.50;3.27;;;;;;;;;;5075811;28;20447;-67
2023/09/16 14:07:16;;;;;;;3.30;3.10;;;;;;;;;;5075662;28;20451;-67
2023/09/16 14:09:43;;;;;;;3.80;3.50;;;;;;;;;;5075895;28;20450;-67
2023/09/16 14:12:10;;;;;;;3.73;3.53;;;;;;;;;;5075589;28;21036;-67
2023/09/16 14:14:37;;;;;;;3.40;3.20;;;;;;;;;;5075613;28;20451;-67
2023/09/16 14:17:04;;;;;;;3.53;3.30;;;;;;;;;;5075629;28;20865;-67
2023/09/16 14:19:32;;;;;;;5.80;3.30;;;;;;;;;;5075438;28;20479;-67
2023/09/16 14:22:00;;;;;;;3.13;2.93;;;;;;;;;;5075693;28;20443;-67
2023/09/16 14:24:27;;;;;;;3.10;2.90;;;;;;;;;;5075713;28;20474;-67
2023/09/16 14:26:54;;;;;;;3.70;3.50;;;;;;;;;;5075422;28;20809;-67
2023/09/16 14:29:21;;;;;;;5.40;3.90;;;;;;;;;;5075213;28;20540;-67
2023/09/16 14:31:48;;;;;;;3.07;2.97;;;;;;;;;;5075469;28;20558;-67
2023/09/16 14:34:15;;;;;;;3.33;3.03;;;;;;;;;;5075121;28;20443;-67
2023/09/16 14:36:43;;;;;;;3.00;2.80;;;;;;;;;;5075412;28;20881;-67
2023/09/16 14:39:10;;;;;;;3.27;3.07;;;;;;;;;;5075280;28;20542;-67
2023/09/16 14:41:37;;;;;;;5.23;3.67;;;;;;;;;;5075344;28;20872;-67
2023/09/16 14:44:04;;;;;;;3.77;2.97;;;;;;;;;;5075116;28;20538;-67
2023/09/16 14:46:31;;;;;;;3.90;3.60;;;;;;;;;;5074912;28;20985;-67